Time;durP1;ratioP1;P1;durP2;ratioP2;P2;SDS_P1;SDS_P2;PMS_P1;PMS_P2;Temp;Humidity;BMP_temperature;BMP_pressure;BME280_temperature;BME280_humidity;BME280_pressure;Samples;Min_cycle;Max_cycle;Signal;HPM_P1;HPM_P2
2022/12/08 00:00:42;;;;;;;;;;;;;;;6.23;100.00;97482.50;5069185;28;19992;-58
2022/12/08 00:03:08;;;;;;;;;;;;;;;6.21;100.00;97484.59;5069208;28;19970;-58
2022/12/08 00:11:04;;;;;;;;;;;;;;;6.19;100.00;97484.84;5068521;28;19952;-59
2022/12/08 00:13:30;;;;;;;;;;;;;;;6.15;100.00;97474.97;5068695;28;20590;-59
2022/12/08 00:15:59;;;;;;;;;;;;;;;6.13;100.00;97472.56;5050860;28;19925;-59
2022/12/08 00:18:25;;;;;;;;;;;;;;;6.15;100.00;97467.84;5068604;28;19936;-59
2022/12/08 00:20:55;;;;;;;;;;;;;;;6.15;100.00;97469.69;5068630;28;19985;-58
2022/12/08 00:23:22;;;;;;;;;;;;;;;6.05;100.00;97458.94;5062000;28;19992;-59
2022/12/08 00:25:48;;;;;;;;;;;;;;;6.05;100.00;97465.03;5071466;28;19992;-59
2022/12/08 00:28:15;;;;;;;;;;;;;;;5.55;100.00;97466.91;5064225;28;19920;-58
2022/12/08 00:30:41;;;;;;;;;;;;;;;5.53;100.00;97458.41;5072374;28;19968;-59
2022/12/08 00:33:08;;;;;;;;;;;;;;;5.65;100.00;97461.78;5072218;28;19936;-59
2022/12/08 00:35:34;;;;;;;;;;;;;;;5.60;100.00;97459.06;5072151;28;20213;-59
2022/12/08 00:38:02;;;;;;;;;;;;;;;5.48;100.00;97459.13;5072219;28;19963;-59
2022/12/08 00:40:28;;;;;;;;;;;;;;;5.51;100.00;97468.47;5072424;28;19929;-60
2022/12/08 00:42:55;;;;;;;;;;;;;;;5.67;100.00;97457.03;5072501;28;19933;-58
2022/12/08 00:45:21;;;;;;;;;;;;;;;5.74;100.00;97460.31;5072011;28;20004;-58
2022/12/08 00:47:47;;;;;;;;;;;;;;;5.79;100.00;97468.34;5072318;28;19925;-59
2022/12/08 00:50:14;;;;;;;;;;;;;;;5.80;100.00;97462.00;5072158;28;19924;-59
2022/12/08 00:52:40;;;;;;;;;;;;;;;5.76;100.00;97459.03;5067207;28;19975;-59
2022/12/08 00:55:08;;;;;;;;;;;;;;;5.75;100.00;97456.63;5071009;28;19929;-58
2022/12/08 00:57:35;;;;;;;;;;;;;;;5.72;100.00;97462.41;5072320;28;19921;-58
2022/12/08 01:00:01;;;;;;;;;;;;;;;5.74;100.00;97463.78;5072089;28;19964;-57
2022/12/08 01:02:27;;;;;;;;;;;;;;;5.82;100.00;97457.25;5071822;28;20000;-59
2022/12/08 01:04:54;;;;;;;;;;;;;;;5.87;100.00;97460.03;5071875;28;19932;-59
2022/12/08 01:07:20;;;;;;;;;;;;;;;5.91;100.00;97461.16;5071478;28;19990;-59
2022/12/08 01:09:47;;;;;;;;;;;;;;;5.96;100.00;97461.22;5071836;28;19996;-59
2022/12/08 01:12:14;;;;;;;;;;;;;;;5.91;100.00;97459.28;5071930;28;19932;-58
2022/12/08 01:14:40;;;;;;;;;;;;;;;5.90;100.00;97455.03;5071668;28;20024;-59
2022/12/08 01:17:07;;;;;;;;;;;;;;;5.93;100.00;97456.41;5072500;28;19988;-58
2022/12/08 01:19:33;;;;;;;;;;;;;;;5.82;100.00;97458.06;5072790;28;19959;-59
2022/12/08 01:21:59;;;;;;;;;;;;;;;5.78;100.00;97466.75;5072755;28;19935;-58
2022/12/08 01:24:26;;;;;;;;;;;;;;;5.81;100.00;97466.25;5065763;28;19928;-58
2022/12/08 01:26:52;;;;;;;;;;;;;;;5.54;100.00;97463.47;5072205;28;20019;-59
2022/12/08 01:29:20;;;;;;;;;;;;;;;5.60;100.00;97457.19;5071933;28;19925;-58
2022/12/08 01:31:46;;;;;;;;;;;;;;;5.38;100.00;97456.34;5072293;28;20498;-58
2022/12/08 01:34:13;;;;;;;;;;;;;;;5.30;100.00;97454.88;5071958;28;19928;-59
2022/12/08 01:36:39;;;;;;;;;;;;;;;5.45;100.00;97457.78;5071800;28;19925;-58
2022/12/08 01:39:07;;;;;;;;;;;;;;;5.57;100.00;97455.03;5071806;28;19928;-59
2022/12/08 01:41:36;;;;;;;;;;;;;;;5.16;100.00;97453.59;5072762;28;19972;-58
2022/12/08 01:44:04;;;;;;;;;;;;;;;5.27;100.00;97455.38;5072541;28;19924;-59
2022/12/08 01:46:32;;;;;;;;;;;;;;;5.19;100.00;97449.66;5071744;28;19984;-59
2022/12/08 01:49:02;;;;;;;;;;;;;;;4.93;100.00;97448.41;5071087;28;19929;-58
2022/12/08 01:51:28;;;;;;;;;;;;;;;4.80;100.00;97446.06;5070912;28;20031;-58
2022/12/08 01:53:55;;;;;;;;;;;;;;;4.60;100.00;97448.34;5063996;28;19931;-59
2022/12/08 01:56:25;;;;;;;;;;;;;;;4.29;100.00;97439.84;5070583;28;19964;-59
2022/12/08 01:58:52;;;;;;;;;;;;;;;4.43;100.00;97440.34;5070306;28;19959;-57
2022/12/08 02:01:19;;;;;;;;;;;;;;;4.77;100.00;97438.59;5070449;28;19925;-58
2022/12/08 02:03:48;;;;;;;;;;;;;;;4.92;100.00;97440.75;5070120;28;19956;-58
2022/12/08 02:06:16;;;;;;;;;;;;;;;5.14;100.00;97438.97;5069921;28;19932;-58
2022/12/08 02:08:43;;;;;;;;;;;;;;;4.89;100.00;97437.50;5070332;28;19924;-59
2022/12/08 02:11:10;;;;;;;;;;;;;;;4.84;100.00;97434.78;5070250;28;20027;-59
2022/12/08 02:13:37;;;;;;;;;;;;;;;5.02;100.00;97428.47;5070269;28;19924;-59
2022/12/08 02:16:06;;;;;;;;;;;;;;;5.00;100.00;97421.81;5070161;28;20620;-60
2022/12/08 02:18:40;;;;;;;;;;;;;;;4.97;100.00;97424.94;5070087;28;20011;-58
2022/12/08 02:21:11;;;;;;;;;;;;;;;5.03;100.00;97427.44;5070040;28;19964;-59
2022/12/08 02:23:43;;;;;;;;;;;;;;;5.09;100.00;97421.19;5063434;28;19983;-57
2022/12/08 02:26:27;;;;;;;;;;;;;;;5.05;100.00;97414.75;5069919;28;19984;-58
2022/12/08 02:29:05;;;;;;;;;;;;;;;4.92;100.00;97412.41;5069840;28;19928;-58
2022/12/08 02:31:37;;;;;;;;;;;;;;;5.16;100.00;97411.25;5069849;28;19999;-59
2022/12/08 02:34:11;;;;;;;;;;;;;;;5.25;100.00;97409.81;5068469;28;19993;-59
2022/12/08 02:36:41;;;;;;;;;;;;;;;5.31;100.00;97410.69;5069870;28;19929;-58
2022/12/08 02:39:11;;;;;;;;;;;;;;;5.34;100.00;97411.00;5069622;28;19936;-59
2022/12/08 02:41:41;;;;;;;;;;;;;;;5.38;100.00;97404.16;5069819;28;19982;-59
2022/12/08 02:44:10;;;;;;;;;;;;;;;5.47;100.00;97411.72;5069605;28;19971;-58
2022/12/08 02:46:40;;;;;;;;;;;;;;;5.53;100.00;97400.16;5069357;28;19929;-58
2022/12/08 02:49:08;;;;;;;;;;;;;;;5.51;100.00;97397.72;5069348;28;19959;-59
2022/12/08 02:51:34;;;;;;;;;;;;;;;5.46;100.00;97402.97;5069638;28;19972;-63
2022/12/08 02:54:02;;;;;;;;;;;;;;;5.43;100.00;97393.66;5063000;28;19960;-58
2022/12/08 02:56:35;;;;;;;;;;;;;;;5.07;100.00;97396.00;5069327;28;20225;-59
2022/12/08 02:59:11;;;;;;;;;;;;;;;5.05;100.00;97392.78;5069151;28;20012;-61
2022/12/08 03:01:44;;;;;;;;;;;;;;;4.83;100.00;97392.69;5069479;28;19996;-58
2022/12/08 03:04:18;;;;;;;;;;;;;;;4.72;100.00;97389.06;5069069;28;19925;-60
2022/12/08 03:06:48;;;;;;;;;;;;;;;3.93;100.00;97386.50;5068942;28;19925;-58
2022/12/08 03:09:18;;;;;;;;;;;;;;;3.61;100.00;97388.72;5060795;28;19932;-59
2022/12/08 03:11:47;;;;;;;;;;;;;;;3.72;100.00;97377.34;5068817;28;19971;-59
2022/12/08 03:14:16;;;;;;;;;;;;;;;4.07;100.00;97377.28;5069021;28;19924;-60
2022/12/08 03:16:43;;;;;;;;;;;;;;;3.55;100.00;97374.63;5068984;28;19925;-60
2022/12/08 03:19:14;;;;;;;;;;;;;;;3.16;100.00;97388.50;5069083;28;19928;-59
2022/12/08 03:21:43;;;;;;;;;;;;;;;2.99;100.00;97387.56;5069239;28;19959;-59
2022/12/08 03:24:10;;;;;;;;;;;;;;;2.86;100.00;97388.56;5062445;28;20745;-58
2022/12/08 03:26:41;;;;;;;;;;;;;;;2.82;100.00;97371.59;5069028;28;20341;-58
2022/12/08 03:29:07;;;;;;;;;;;;;;;2.95;100.00;97376.66;5069217;28;20151;-59
2022/12/08 03:31:38;;;;;;;;;;;;;;;3.14;100.00;97380.81;5068866;28;20424;-59
2022/12/08 03:34:05;;;;;;;;;;;;;;;3.53;100.00;97378.53;5069056;28;19939;-57
2022/12/08 03:36:31;;;;;;;;;;;;;;;3.21;100.00;97365.69;5068908;28;19924;-58
2022/12/08 03:38:59;;;;;;;;;;;;;;;3.33;100.00;97367.50;5068879;28;20062;-58
2022/12/08 03:41:26;;;;;;;;;;;;;;;3.33;100.00;97357.75;5069047;28;19984;-59
2022/12/08 03:43:53;;;;;;;;;;;;;;;3.31;100.00;97353.75;5068801;28;20417;-58
2022/12/08 03:46:20;;;;;;;;;;;;;;;4.07;100.00;97349.00;5068640;28;19987;-59
2022/12/08 03:48:46;;;;;;;;;;;;;;;3.74;100.00;97348.88;5068901;28;19925;-60
2022/12/08 03:51:13;;;;;;;;;;;;;;;3.40;100.00;97352.38;5068679;28;20104;-58
2022/12/08 03:53:39;;;;;;;;;;;;;;;3.63;100.00;97358.41;5062179;28;19935;-58
2022/12/08 03:56:14;;;;;;;;;;;;;;;3.94;100.00;97354.56;5068765;28;19995;-59
2022/12/08 03:58:40;;;;;;;;;;;;;;;3.99;100.00;97352.00;5068702;28;19925;-59
2022/12/08 04:01:07;;;;;;;;;;;;;;;4.06;100.00;97359.81;5072344;28;20027;-59
2022/12/08 04:03:33;;;;;;;;;;;;;;;4.08;100.00;97358.56;5072466;28;19925;-59
2022/12/08 04:05:59;;;;;;;;;;;;;;;4.20;100.00;97363.78;5072325;28;20313;-59
2022/12/08 04:08:26;;;;;;;;;;;;;;;4.21;100.00;97354.81;5072502;28;19924;-58
2022/12/08 04:10:52;;;;;;;;;;;;;;;4.44;100.00;97354.72;5072467;28;20368;-58
2022/12/08 04:13:20;;;;;;;;;;;;;;;4.44;100.00;97345.97;5072484;28;20001;-59
2022/12/08 04:15:46;;;;;;;;;;;;;;;4.35;100.00;97342.94;5072262;28;19921;-58
2022/12/08 04:18:12;;;;;;;;;;;;;;;4.53;100.00;97353.28;5072156;28;19995;-58
2022/12/08 04:20:39;;;;;;;;;;;;;;;4.44;100.00;97348.63;5072237;28;19928;-58
2022/12/08 04:23:05;;;;;;;;;;;;;;;4.51;100.00;97352.75;5065511;28;19989;-59
2022/12/08 04:25:31;;;;;;;;;;;;;;;4.62;100.00;97348.41;5072194;28;19992;-58
2022/12/08 04:27:58;;;;;;;;;;;;;;;4.52;100.00;97353.53;5072007;28;20508;-59
2022/12/08 04:30:25;;;;;;;;;;;;;;;4.34;100.00;97344.75;5071945;28;19928;-58
2022/12/08 04:32:51;;;;;;;;;;;;;;;4.44;100.00;97345.97;5072036;28;19931;-58
2022/12/08 04:35:18;;;;;;;;;;;;;;;4.51;100.00;97339.53;5072236;28;20000;-59
2022/12/08 04:37:44;;;;;;;;;;;;;;;4.45;100.00;97344.94;5071923;28;19935;-58
2022/12/08 04:40:11;;;;;;;;;;;;;;;4.45;100.00;97350.25;5071855;28;19935;-59
2022/12/08 04:42:38;;;;;;;;;;;;;;;4.36;100.00;97340.03;5071657;28;20376;-57
2022/12/08 04:45:05;;;;;;;;;;;;;;;4.46;100.00;97343.88;5071763;28;19980;-60
2022/12/08 04:47:32;;;;;;;;;;;;;;;4.65;100.00;97350.56;5071610;28;20011;-59
2022/12/08 04:49:59;;;;;;;;;;;;;;;4.76;100.00;97347.09;5071848;28;19984;-58
2022/12/08 04:52:25;;;;;;;;;;;;;;;4.72;100.00;97345.94;5068454;28;19925;-60
2022/12/08 04:54:51;;;;;;;;;;;;;;;4.13;100.00;97341.97;5068762;28;20397;-58
2022/12/08 04:57:18;;;;;;;;;;;;;;;3.89;100.00;97337.81;5071471;28;20004;-58
2022/12/08 04:59:44;;;;;;;;;;;;;;;3.94;100.00;97343.19;5071853;28;19931;-58
2022/12/08 05:02:12;;;;;;;;;;;;;;;3.85;100.00;97350.69;5071658;28;19967;-59
2022/12/08 05:04:39;;;;;;;;;;;;;;;4.00;100.00;97353.63;5071823;28;19924;-58
2022/12/08 05:07:06;;;;;;;;;;;;;;;4.16;100.00;97349.44;5071503;28;19978;-58
2022/12/08 05:09:32;;;;;;;;;;;;;;;4.19;100.00;97349.78;5071482;28;19980;-58
2022/12/08 05:11:58;;;;;;;;;;;;;;;4.32;100.00;97351.31;5071121;28;19938;-58
2022/12/08 05:14:25;;;;;;;;;;;;;;;4.29;100.00;97347.31;5071270;28;19928;-58
2022/12/08 05:16:51;;;;;;;;;;;;;;;4.33;100.00;97348.44;5071271;28;19980;-57
2022/12/08 05:19:17;;;;;;;;;;;;;;;4.30;100.00;97351.56;5071491;28;19992;-59
2022/12/08 05:21:45;;;;;;;;;;;;;;;4.48;100.00;97355.06;5071127;28;20106;-59
2022/12/08 05:24:11;;;;;;;;;;;;;;;4.71;100.00;97347.78;5064557;28;19929;-59
2022/12/08 05:26:38;;;;;;;;;;;;;;;4.80;100.00;97354.28;5071122;28;20005;-59
2022/12/08 05:29:04;;;;;;;;;;;;;;;4.89;100.00;97347.56;5071116;28;19988;-59
2022/12/08 05:31:30;;;;;;;;;;;;;;;4.97;100.00;97353.50;5071037;28;20144;-60
2022/12/08 05:33:57;;;;;;;;;;;;;;;4.99;100.00;97349.56;5070854;28;19964;-59
2022/12/08 05:36:23;;;;;;;;;;;;;;;4.98;100.00;97345.34;5070832;28;19976;-60
2022/12/08 05:38:51;;;;;;;;;;;;;;;4.90;100.00;97343.88;5070878;28;19948;-59
2022/12/08 05:41:18;;;;;;;;;;;;;;;4.84;100.00;97339.53;5062837;28;19984;-58
2022/12/08 05:43:45;;;;;;;;;;;;;;;4.58;100.00;97328.78;5070891;28;20657;-58
2022/12/08 05:46:11;;;;;;;;;;;;;;;4.55;100.00;97329.28;5070703;28;19939;-59
2022/12/08 05:48:38;;;;;;;;;;;;;;;4.27;100.00;97338.81;5070688;28;20006;-58
2022/12/08 05:51:05;;;;;;;;;;;;;;;3.66;100.00;97330.75;5070719;28;19988;-59
2022/12/08 05:53:31;;;;;;;;;;;;;;;3.50;100.00;97342.00;5063930;28;19984;-58
2022/12/08 05:55:59;;;;;;;;;;;;;;;3.01;100.00;97338.00;5052856;28;19925;-59
2022/12/08 05:58:25;;;;;;;;;;;;;;;3.16;100.00;97344.44;5070529;28;20353;-58
2022/12/08 06:00:51;;;;;;;;;;;;;;;3.32;100.00;97339.50;5070661;28;19980;-58
2022/12/08 06:03:18;;;;;;;;;;;;;;;3.17;100.00;97332.88;5070530;28;19932;-59
2022/12/08 06:05:46;;;;;;;;;;;;;;;2.72;100.00;97337.09;5070746;28;20447;-59
2022/12/08 06:08:12;;;;;;;;;;;;;;;2.67;100.00;97334.31;5070395;28;20020;-58
2022/12/08 06:10:39;;;;;;;;;;;;;;;2.75;100.00;97343.72;5070409;28;19925;-58
2022/12/08 06:13:06;;;;;;;;;;;;;;;2.97;100.00;97332.38;5070321;28;19982;-58
2022/12/08 06:15:33;;;;;;;;;;;;;;;3.30;100.00;97331.03;5052418;28;19929;-58
2022/12/08 06:18:00;;;;;;;;;;;;;;;3.52;100.00;97330.22;5070310;28;19938;-59
2022/12/08 06:20:26;;;;;;;;;;;;;;;3.71;100.00;97334.28;5070208;28;19980;-59
2022/12/08 06:22:53;;;;;;;;;;;;;;;3.77;100.00;97316.72;5062222;28;20027;-59
2022/12/08 06:25:20;;;;;;;;;;;;;;;3.79;100.00;97327.84;5069572;28;19952;-59
2022/12/08 06:27:46;;;;;;;;;;;;;;;3.98;100.00;97321.38;5069603;28;20035;-60
2022/12/08 06:30:14;;;;;;;;;;;;;;;3.95;100.00;97324.47;5069421;28;20015;-60
2022/12/08 06:32:40;;;;;;;;;;;;;;;4.06;100.00;97322.81;5069714;28;19960;-59
2022/12/08 06:35:07;;;;;;;;;;;;;;;4.10;100.00;97331.88;5069741;28;19971;-59
2022/12/08 06:37:34;;;;;;;;;;;;;;;4.17;100.00;97330.72;5068122;28;20277;-59
2022/12/08 06:40:00;;;;;;;;;;;;;;;4.36;100.00;97329.44;5069459;28;19925;-61
2022/12/08 06:42:45;;;;;;;;;;;;;;;4.48;100.00;97328.63;5069292;28;19924;-58
2022/12/08 06:45:14;;;;;;;;;;;;;;;4.49;100.00;97327.59;5069462;28;19924;-60
2022/12/08 06:47:40;;;;;;;;;;;;;;;4.32;100.00;97328.34;5069385;28;19935;-58
2022/12/08 06:50:07;;;;;;;;;;;;;;;4.00;100.00;97326.41;5069641;28;19984;-58
2022/12/08 06:52:33;;;;;;;;;;;;;;;4.26;100.00;97328.50;5064544;28;19968;-59
2022/12/08 06:55:00;;;;;;;;;;;;;;;4.17;100.00;97337.84;5067321;28;19992;-59
2022/12/08 06:57:26;;;;;;;;;;;;;;;4.28;100.00;97335.13;5069409;28;19925;-60
2022/12/08 06:59:52;;;;;;;;;;;;;;;4.44;100.00;97335.41;5069435;28;19978;-59
2022/12/08 07:02:20;;;;;;;;;;;;;;;4.57;100.00;97337.75;5069267;28;19975;-59
2022/12/08 07:04:46;;;;;;;;;;;;;;;4.61;100.00;97346.84;5069788;28;19988;-60
2022/12/08 07:07:13;;;;;;;;;;;;;;;4.63;100.00;97342.91;5051504;28;19948;-58
2022/12/08 07:09:39;;;;;;;;;;;;;;;4.54;100.00;97339.03;5068822;28;19925;-59
2022/12/08 07:12:05;;;;;;;;;;;;;;;4.37;100.00;97338.19;5068960;28;20008;-59
2022/12/08 07:14:32;;;;;;;;;;;;;;;4.29;100.00;97343.88;5069038;28;19956;-58
2022/12/08 07:16:58;;;;;;;;;;;;;;;4.27;100.00;97344.09;5069034;28;20025;-59
2022/12/08 07:19:26;;;;;;;;;;;;;;;4.18;100.00;97342.88;5069113;28;19925;-59
2022/12/08 07:21:52;;;;;;;;;;;;;;;4.12;100.00;97335.88;5069224;28;19931;-58
2022/12/08 07:24:18;;;;;;;;;;;;;;;3.80;100.00;97338.19;5062213;28;19984;-60
2022/12/08 07:26:45;;;;;;;;;;;;;;;4.07;100.00;97349.00;5069016;28;20273;-58
2022/12/08 07:29:11;;;;;;;;;;;;;;;3.99;100.00;97340.66;5068878;28;19980;-58
2022/12/08 07:31:37;;;;;;;;;;;;;;;3.81;100.00;97336.31;5069280;28;19925;-59
2022/12/08 07:34:04;;;;;;;;;;;;;;;3.48;100.00;97344.09;5071854;28;19984;-59
2022/12/08 07:36:32;;;;;;;;;;;;;;;3.57;100.00;97346.16;5074001;28;20000;-59
2022/12/08 07:38:58;;;;;;;;;;;;;;;3.64;100.00;97336.25;5073214;28;19929;-58
2022/12/08 07:41:25;;;;;;;;;;;;;;;3.49;100.00;97340.44;5073247;28;19984;-60
2022/12/08 07:43:52;;;;;;;;;;;;;;;3.23;100.00;97331.94;5073044;28;19983;-58
2022/12/08 07:46:20;;;;;;;;;;;;;;;2.95;100.00;97329.19;5073026;28;19973;-59
2022/12/08 07:48:47;;;;;;;;;;;;;;;3.08;100.00;97333.44;5072952;28;19979;-58
2022/12/08 07:51:14;;;;;;;;;;;;;;;3.09;100.00;97345.59;5072175;28;19992;-59
2022/12/08 07:53:43;;;;;;;;;;;;;;;3.28;100.00;97339.97;5067027;28;19980;-59
2022/12/08 07:56:10;;;;;;;;;;;;;;;3.14;100.00;97345.72;5073837;28;19984;-58
2022/12/08 07:58:36;;;;;;;;;;;;;;;3.00;100.00;97331.94;5072929;28;20466;-58
2022/12/08 08:01:03;;;;;;;;;;;;;;;3.03;100.00;97342.03;5072913;28;19992;-58
2022/12/08 08:03:29;;;;;;;;;;;;;;;3.08;100.00;97338.72;5072537;28;19995;-58
2022/12/08 08:05:55;;;;;;;;;;;;;;;3.15;100.00;97347.31;5072142;28;20069;-59
2022/12/08 08:08:22;;;;;;;;;;;;;;;3.18;100.00;97354.78;5072145;28;19997;-58
2022/12/08 08:10:49;;;;;;;;;;;;;;;2.99;100.00;97340.91;5054519;28;20142;-57
2022/12/08 08:13:16;;;;;;;;;;;;;;;3.18;100.00;97354.78;5064235;28;19936;-58
2022/12/08 08:15:42;;;;;;;;;;;;;;;3.35;100.00;97355.69;5072485;28;19997;-58
2022/12/08 08:18:08;;;;;;;;;;;;;;;3.43;100.00;97352.72;5072170;28;19988;-58
2022/12/08 08:20:35;;;;;;;;;;;;;;;3.40;100.00;97352.38;5072362;28;19956;-57
2022/12/08 08:23:01;;;;;;;;;;;;;;;3.23;100.00;97350.41;5065222;28;19925;-58
2022/12/08 08:25:27;;;;;;;;;;;;;;;2.96;100.00;97337.91;5072012;28;19988;-59
2022/12/08 08:27:55;;;;;;;;;;;;;;;2.86;100.00;97345.56;5071791;28;19968;-59
2022/12/08 08:30:21;;;;;;;;;;;;;;;2.83;100.00;97349.47;5072025;28;19931;-59
2022/12/08 08:32:48;;;;;;;;;;;;;;;3.31;100.00;97344.00;5071949;28;19988;-59
2022/12/08 08:35:14;;;;;;;;;;;;;;;2.95;100.00;97349.47;5071869;28;19929;-59
2022/12/08 08:37:40;;;;;;;;;;;;;;;2.90;100.00;97347.53;5071750;28;19960;-59
2022/12/08 08:40:07;;;;;;;;;;;;;;;2.91;100.00;97343.84;5072348;28;20004;-58
2022/12/08 08:42:34;;;;;;;;;;;;;;;2.88;100.00;97348.81;5072213;28;19956;-59
2022/12/08 08:45:01;;;;;;;;;;;;;;;3.27;100.00;97348.13;5071161;28;19951;-58
2022/12/08 08:47:27;;;;;;;;;;;;;;;3.81;100.00;97349.53;5071978;28;20572;-59
2022/12/08 08:49:54;;;;;;;;;;;;;;;4.01;100.00;97347.31;5071971;28;19924;-59
2022/12/08 08:52:20;;;;;;;;;;;;;;;4.18;100.00;97344.72;5069422;28;19984;-59
2022/12/08 08:54:46;;;;;;;;;;;;;;;3.99;100.00;97346.72;5068108;28;19997;-59
2022/12/08 08:57:13;;;;;;;;;;;;;;;3.43;100.00;97346.63;5072041;28;20000;-60
2022/12/08 08:59:39;;;;;;;;;;;;;;;3.23;100.00;97346.97;5072064;28;19988;-60
2022/12/08 09:02:10;;;;;;;;;;;;;;;3.31;100.00;97348.47;5071816;28;20021;-60
2022/12/08 09:04:36;;;;;;;;;;;;;;;3.71;100.00;97350.13;5071628;28;19996;-61
2022/12/08 09:07:02;;;;;;;;;;;;;;;4.00;100.00;97353.63;5071683;28;20020;-60
2022/12/08 09:09:30;;;;;;;;;;;;;;;4.22;100.00;97353.78;5071498;28;19977;-59
2022/12/08 09:11:56;;;;;;;;;;;;;;;4.37;100.00;97354.06;5071684;28;19929;-58
2022/12/08 09:14:23;;;;;;;;;;;;;;;4.43;100.00;97347.81;5053606;28;19933;-58
2022/12/08 09:16:49;;;;;;;;;;;;;;;4.47;100.00;97351.59;5071968;28;20130;-59
2022/12/08 09:19:17;;;;;;;;;;;;;;;4.50;100.00;97352.97;5063166;28;19992;-59
2022/12/08 09:21:43;;;;;;;;;;;;;;;4.52;100.00;97346.38;5071266;28;20511;-59
2022/12/08 09:24:14;;;;;;;;;;;;;;;4.57;100.00;97343.03;5046182;28;19974;-61
2022/12/08 09:26:41;;;;;;;;;;;;;;;4.45;100.00;97343.13;5071477;28;19947;-60
2022/12/08 09:29:07;;;;;;;;;;;;;;;4.45;100.00;97339.66;5071788;28;19925;-59
2022/12/08 09:31:34;;;;;;;;;;;;;;;4.07;100.00;97335.81;5071865;28;19929;-60
2022/12/08 09:34:00;;;;;;;;;;;;;;;4.00;100.00;97332.47;5071498;28;19928;-60
2022/12/08 09:36:28;;;;;;;;;;;;;;;4.08;100.00;97334.78;5071699;28;19925;-59
2022/12/08 09:38:54;;;;;;;;;;;;;;;4.14;100.00;97333.84;5071761;28;19924;-58
2022/12/08 09:41:28;;;;;;;;;;;;;;;4.33;100.00;97329.94;5071240;28;19976;-59
2022/12/08 09:44:00;;;;;;;;;;;;;;;4.48;100.00;97331.25;5071013;28;19925;-57
2022/12/08 09:46:28;;;;;;;;;;;;;;;4.56;100.00;97325.56;5071054;28;20052;-60
2022/12/08 09:48:56;;;;;;;;;;;;;;;4.56;100.00;97322.91;5071021;28;19924;-59
2022/12/08 09:51:23;;;;;;;;;;;;;;;4.57;100.00;97322.69;5070845;28;19991;-59
2022/12/08 09:53:54;;;;;;;;;;;;;;;4.63;100.00;97323.59;5064117;28;19928;-59
2022/12/08 09:56:22;;;;;;;;;;;;;;;4.67;100.00;97311.50;5063249;28;19960;-59
2022/12/08 09:58:51;;;;;;;;;;;;;;;4.70;100.00;97313.66;5070832;28;19925;-58
2022/12/08 10:01:19;;;;;;;;;;;;;;;4.42;100.00;97313.69;5062632;28;19947;-59
2022/12/08 10:03:45;;;;;;;;;;;;;;;4.24;100.00;97310.22;5070575;28;19932;-58
2022/12/08 10:06:15;;;;;;;;;;;;;;;4.04;100.00;97311.69;5070555;28;19992;-60
2022/12/08 10:08:46;;;;;;;;;;;;;;;3.98;100.00;97291.50;5070175;28;19992;-59
2022/12/08 10:11:18;;;;;;;;;;;;;;;3.57;100.00;97295.19;5070368;28;19992;-59
2022/12/08 10:13:50;;;;;;;;;;;;;;;3.44;100.00;97298.88;5070282;28;20046;-58
2022/12/08 10:16:22;;;;;;;;;;;;;;;3.45;100.00;97297.03;5061882;28;20440;-59
2022/12/08 10:18:52;;;;;;;;;;;;;;;3.50;100.00;97291.84;5070290;28;19925;-59
2022/12/08 10:21:21;;;;;;;;;;;;;;;3.19;100.00;97293.06;5062185;28;19921;-59
2022/12/08 10:23:48;;;;;;;;;;;;;;;3.28;100.00;97296.16;5063447;28;20050;-58
2022/12/08 10:26:17;;;;;;;;;;;;;;;3.22;100.00;97287.31;5069782;28;19992;-58
2022/12/08 10:28:43;;;;;;;;;;;;;;;3.10;100.00;97289.97;5070285;28;20033;-59
2022/12/08 10:31:15;;;;;;;;;;;;;;;3.07;100.00;97287.78;5069914;28;19988;-59
2022/12/08 10:33:41;;;;;;;;;;;;;;;3.10;100.00;97284.69;5070100;28;20024;-59
2022/12/08 10:36:10;;;;;;;;;;;;;;;3.02;100.00;97282.41;5070125;28;19988;-59
2022/12/08 10:38:37;;;;;;;;;;;;;;;3.25;100.00;97279.75;5070204;28;20009;-59
2022/12/08 10:41:06;;;;;;;;;;;;;;;3.60;100.00;97276.22;5070106;28;19932;-59
2022/12/08 10:43:34;;;;;;;;;;;;;;;3.98;100.00;97278.28;5070027;28;20016;-59
2022/12/08 10:46:14;;;;;;;;;;;;;;;4.25;100.00;97261.59;5069723;28;19929;-58
2022/12/08 10:48:47;;;;;;;;;;;;;;;4.44;100.00;97264.03;5069681;28;19925;-60
2022/12/08 10:51:21;;;;;;;;;;;;;;;4.56;100.00;97259.47;5069678;28;19992;-59
2022/12/08 10:53:48;;;;;;;;;;;;;;;4.58;100.00;97260.03;5063333;28;19996;-59
2022/12/08 10:56:15;;;;;;;;;;;;;;;4.53;100.00;97244.09;5069914;28;19925;-58
2022/12/08 10:58:43;;;;;;;;;;;;;;;4.44;100.00;97253.44;5069778;28;19956;-58
2022/12/08 11:01:11;;;;;;;;;;;;;;;4.50;100.00;97247.22;5069893;28;20017;-58
2022/12/08 11:03:43;;;;;;;;;;;;;;;4.64;100.00;97243.22;5069966;28;19971;-58
2022/12/08 11:06:12;;;;;;;;;;;;;;;4.50;100.00;97247.22;5069798;28;20015;-59
2022/12/08 11:08:45;;;;;;;;;;;;;;;4.57;100.00;97239.94;5069164;28;20391;-58
2022/12/08 11:11:11;;;;;;;;;;;;;;;4.62;100.00;97243.44;5069882;28;19983;-57
2022/12/08 11:13:40;;;;;;;;;;;;;;;4.71;100.00;97238.53;5069914;28;20011;-58
2022/12/08 11:16:08;;;;;;;;;;;;;;;4.62;100.00;97230.22;5069813;28;19924;-58
2022/12/08 11:18:40;;;;;;;;;;;;;;;4.69;100.00;97230.06;5069868;28;19981;-59
2022/12/08 11:21:07;;;;;;;;;;;;;;;4.65;100.00;97223.63;5069155;28;20004;-59
2022/12/08 11:23:35;;;;;;;;;;;;;;;4.78;100.00;97228.59;5062330;28;20027;-61
2022/12/08 11:26:04;;;;;;;;;;;;;;;4.75;100.00;97214.03;5069312;28;20023;-58
2022/12/08 11:28:31;;;;;;;;;;;;;;;4.85;100.00;97221.31;5069111;28;20005;-59
2022/12/08 11:31:00;;;;;;;;;;;;;;;4.95;100.00;97213.53;5069328;28;19975;-58
2022/12/08 11:33:29;;;;;;;;;;;;;;;4.99;100.00;97214.63;5069478;28;20016;-58
2022/12/08 11:35:58;;;;;;;;;;;;;;;5.05;100.00;97211.00;5069108;28;19988;-59
2022/12/08 11:38:26;;;;;;;;;;;;;;;4.86;100.00;97214.94;5069172;28;19935;-59
2022/12/08 11:40:54;;;;;;;;;;;;;;;4.98;100.00;97210.38;5069344;28;19952;-58
2022/12/08 11:43:26;;;;;;;;;;;;;;;4.76;100.00;97212.19;5069036;28;19967;-59
2022/12/08 11:45:55;;;;;;;;;;;;;;;4.34;100.00;97209.16;5069287;28;20354;-59
2022/12/08 11:48:26;;;;;;;;;;;;;;;3.90;100.00;97202.84;5069165;28;19971;-59
2022/12/08 11:50:56;;;;;;;;;;;;;;;4.35;100.00;97203.63;5068780;28;19925;-59
2022/12/08 11:53:27;;;;;;;;;;;;;;;4.53;100.00;97204.41;5062592;28;19954;-61
2022/12/08 11:55:57;;;;;;;;;;;;;;;4.75;100.00;97202.63;5069054;28;19971;-59
2022/12/08 11:58:26;;;;;;;;;;;;;;;4.82;100.00;97196.16;5068894;28;19980;-59
2022/12/08 12:00:52;;;;;;;;;;;;;;;4.75;100.00;97200.81;5069077;28;19928;-58
2022/12/08 12:03:23;;;;;;;;;;;;;;;4.81;100.00;97204.31;5068857;28;19963;-58
2022/12/08 12:05:57;;;;;;;;;;;;;;;4.87;100.00;97192.75;5068851;28;19927;-59
2022/12/08 12:08:33;;;;;;;;;;;;;;;4.82;100.00;97192.69;5061920;28;19931;-58
2022/12/08 12:11:05;;;;;;;;;;;;;;;4.79;100.00;97196.63;5068709;28;19929;-59
2022/12/08 12:13:44;;;;;;;;;;;;;;;4.81;100.00;97191.09;5068984;28;20024;-58
2022/12/08 12:16:29;;;;;;;;;;;;;;;4.81;100.00;97188.44;5068907;28;19929;-60
2022/12/08 12:18:57;;;;;;;;;;;;;;;4.83;100.00;97186.34;5069033;28;19990;-60
2022/12/08 12:21:26;;;;;;;;;;;;;;;4.74;100.00;97183.31;5071400;28;19947;-59
2022/12/08 12:23:56;;;;;;;;;;;;;;;4.91;100.00;97183.28;5065831;28;19928;-59
2022/12/08 12:26:23;;;;;;;;;;;;;;;5.06;100.00;97180.84;5072393;28;19975;-59
2022/12/08 12:28:52;;;;;;;;;;;;;;;5.05;100.00;97171.28;5072540;28;20015;-58
2022/12/08 12:31:21;;;;;;;;;;;;;;;5.03;100.00;97173.41;5064767;28;19947;-59
2022/12/08 12:33:49;;;;;;;;;;;;;;;5.09;100.00;97167.13;5073006;28;19936;-58
2022/12/08 12:36:15;;;;;;;;;;;;;;;5.10;100.00;97168.72;5072850;28;19965;-58
2022/12/08 12:39:06;;;;;;;;;;;;;;;5.11;100.00;97178.25;5072546;28;19924;-59
2022/12/08 12:41:37;;;;;;;;;;;;;;;5.05;100.00;97162.56;5066352;28;19932;-59
2022/12/08 12:44:22;;;;;;;;;;;;;;;4.86;100.00;97167.34;5072283;28;20036;-59
2022/12/08 12:46:53;;;;;;;;;;;;;;;4.83;100.00;97167.81;5072616;28;20071;-59
2022/12/08 12:49:50;;;;;;;;;;;;;;;4.92;100.00;97161.06;5064254;28;20129;-60
2022/12/08 12:52:35;;;;;;;;;;;;;;;4.87;100.00;97159.16;5008333;28;20101;-58
2022/12/08 12:55:20;;;;;;;;;;;;;;;4.92;100.00;97149.72;5062954;28;20483;-59
2022/12/08 12:57:51;;;;;;;;;;;;;;;4.88;100.00;97150.19;5072160;28;19980;-59